Aviation Digital Data Service (ADDS)

Output produced by METARs form (0731 UTC 18 October 2017)
found at http://www.aviationweather.gov/adds/metars/
 
KPIB 180656Z AUTO 36003KT 10SM CLR 10/09 A3021 RMK AO2 SLP230 T01000089
KPIB 180556Z AUTO 00000KT 10SM CLR 12/10 A3021 RMK AO2 SLP229 T01170100 10172 20117 402440089 58006
KPIB 180456Z AUTO 00000KT 10SM CLR 13/11 A3021 RMK AO2 SLP231 T01280106
KPIB 180356Z AUTO 03003KT 10SM CLR 12/11 A3023 RMK AO2 SLP236 T01220106
KPIB 180256Z AUTO 03003KT 10SM CLR 13/11 A3023 RMK AO2 SLP236 T01330111 53015
KPIB 180156Z AUTO 03003KT 10SM CLR 14/11 A3021 RMK AO2 SLP229 T01440111
KPIB 180056Z AUTO 05003KT 10SM CLR 15/12 A3020 RMK AO2 SLP226 T01500122
KPIB 172356Z AUTO 00000KT 10SM CLR 17/13 A3018 RMK AO2 SLP221 T01720128 10244 20167 53003
KPIB 172256Z AUTO 05004KT 10SM CLR 21/12 A3017 RMK AO2 SLP217 T02110117
KPIB 172156Z AUTO 06007KT 10SM CLR 23/12 A3017 RMK AO2 SLP216 T02280117
KPIB 172056Z AUTO 05009G14KT 020V080 10SM CLR 24/12 A3018 RMK AO2 SLP217 T02390117 56014
KPIB 171956Z AUTO 08007KT 10SM CLR 23/12 A3019 RMK AO2 SLP221 T02330117
KPIB 171856Z AUTO 07007KT 10SM CLR 23/12 A3020 RMK AO2 SLP226 T02330122
KPIB 171756Z AUTO 04008KT 10SM CLR 22/12 A3022 RMK AO2 SLP231 T02220122 10222 20089 58014
KPIB 171656Z AUTO 05005KT 10SM CLR 21/12 A3025 RMK AO2 SLP242 T02110117
KPIB 171556Z AUTO 05009KT 10SM CLR 19/11 A3026 RMK AO2 SLP246 T01890106
KPIB 171456Z AUTO 08009KT 10SM CLR 17/10 A3026 RMK AO2 SLP245 T01670100 50005
KPIB 171453Z AUTO 06009KT 10SM FEW001 16/10 A3026 RMK AO2
KPIB 171356Z AUTO 04007KT 10SM CLR 13/09 A3026 RMK AO2 SLP247 T01330089
KPIB 171256Z AUTO 02006KT 10SM SCT021 11/08 A3024 RMK AO2 SLP242 T01060078
KPIB 171245Z AUTO 02007KT 10SM SCT021 10/08 A3024 RMK AO2 TSNO
KPIB 171238Z AUTO 02006KT 10SM BKN021 10/08 A3024 RMK AO2
KPIB 171156Z AUTO 01006KT 10SM CLR 09/07 A3023 RMK AO2 SLP237 T00890072 10117 20089 53013
KPIB 171056Z AUTO 01006KT 10SM CLR 09/07 A3021 RMK AO2 SLP230 T00940072
KPIB 170956Z AUTO 01007KT 10SM CLR 09/08 A3020 RMK AO2 SLP225 T00890078
KPIB 170856Z AUTO 01007KT 10SM CLR 09/08 A3019 RMK AO2 SLP223 T00940078 58004
KPIB 170756Z AUTO 36007KT 10SM CLR 09/08 A3019 RMK AO2 SLP224 T00940078
KPIB 170656Z AUTO 01006KT 10SM CLR 11/08 A3020 RMK AO2 SLP227 T01110078
KPIB 170556Z AUTO 01008KT 10SM CLR 12/08 A3020 RMK AO2 SLP227 T01170083 10161 20117 402330117 58008
KPIB 170456Z AUTO 01009KT 10SM CLR 12/08 A3022 RMK AO2 SLP232 T01220083
KPIB 170356Z AUTO 01008KT 10SM CLR 12/08 A3023 RMK AO2 SLP237 T01220083
KPIB 170256Z AUTO 36007KT 10SM CLR 13/08 A3023 RMK AO2 SLP235 T01280083 51021
KPIB 170156Z AUTO 36008KT 10SM CLR 13/09 A3021 RMK AO2 SLP229 T01330094
KPIB 170056Z AUTO 36006KT 10SM CLR 14/10 A3020 RMK AO2 SLP225 T01440100
KPIB 162356Z AUTO 36005KT 10SM CLR 16/10 A3017 RMK AO2 SLP214 T01560100 10233 20156 53015
KPIB 162256Z AUTO 35004KT 10SM CLR 18/11 A3015 RMK AO2 SLP207 T01830106
KPIB 162156Z AUTO 35010KT 10SM CLR 21/09 A3013 RMK AO2 SLP201 T02110089
KPIB 162056Z AUTO 01014G18KT 8SM CLR 22/08 A3012 RMK AO2 SLP198 T02220078 56018
KPIB 161956Z AUTO 36014G21KT 10SM CLR 23/07 A3013 RMK AO2 SLP200 T02280072
KPIB 161856Z AUTO 35012G19KT 10SM CLR 23/09 A3014 RMK AO2 SLP204 T02280089
KPIB 161756Z AUTO 01014G19KT 10SM CLR 22/07 A3018 RMK AO2 SLP216 T02170072 10217 20133 58021
KPIB 161656Z AUTO 36014G18KT 10SM CLR 20/08 A3021 RMK AO2 SLP229 T02000083
KPIB 161556Z AUTO 36013G21KT 10SM CLR 19/08 A3023 RMK AO2 SLP233 T01890083
KPIB 161456Z AUTO 36013G16KT 10SM CLR 17/09 A3024 RMK AO2 SLP237 T01720089 51021
KPIB 161356Z AUTO 02015G20KT 10SM CLR 14/09 A3023 RMK AO2 SLP235 T01440094
KPIB 161256Z AUTO 01011G18KT 10SM CLR 14/11 A3020 RMK AO2 SLP225 T01390106
KPIB 161243Z AUTO 01011G19KT 10SM SCT014 13/11 A3019 RMK AO2
KPIB 161156Z AUTO 01014G18KT 10SM OVC012 14/12 A3017 RMK AO2 SLP216 T01390122 10217 20139 51018
KPIB 161124Z AUTO 36012G18KT 10SM OVC011 14/13 A3017 RMK AO2 CIG 007V014
KPIB 161056Z AUTO 36010KT 10SM OVC008 15/14 A3016 RMK AO2 SLP212 T01500144
KPIB 160956Z AUTO 36012KT 10SM BKN012 OVC035 16/14 A3014 RMK AO2 SLP204 T01610139
KPIB 160917Z AUTO 01012KT 10SM OVC012 17/14 A3013 RMK AO2
KPIB 160856Z AUTO 36012KT 10SM OVC009 18/16 A3012 RMK AO2 SLP198 T01780156 50002
KPIB 160756Z AUTO 01014G17KT 10SM OVC009 19/18 A3012 RMK AO2 SLP197 T01940178
KPIB 160746Z AUTO 35008KT 10SM OVC009 19/18 A3012 RMK AO2
KPIB 160656Z AUTO 35011G16KT 10SM OVC011 21/18 A3013 RMK AO2 SLP201 T02060183
KPIB 160556Z AUTO 35006KT 10SM OVC011 22/20 A3011 RMK AO2 CIG 009V014 SLP194 T02170200 10256 20217 402940211 51001
KPIB 160545Z AUTO 36010KT 10SM BKN011 OVC034 22/20 A3011 RMK AO2 CIG 009V014
KPIB 160537Z AUTO 35009KT 10SM BKN009 OVC034 22/20 A3010 RMK AO2 CIG 009V015
KPIB 160456Z AUTO 35010G16KT 10SM BKN010 23/21 A3011 RMK AO2 SLP193 T02280211
KPIB 160428Z AUTO 34009G14KT 10SM BKN010 OVC016 23/22 A3011 RMK AO2 LTG DSNT NE CIG 007V012
KPIB 160409Z AUTO 35004KT 10SM BKN008 BKN017 OVC043 23/22 A3011 RMK AO2 CIG 004V012
KPIB 160356Z AUTO 27004KT 9SM SCT010 BKN017 BKN045 23/22 A3011 RMK AO2 LTG DSNT NE AND NW SLP194 T02330222
KPIB 160351Z AUTO VRB03KT 6SM BR FEW007 SCT012 BKN044 23/22 A3011 RMK AO2 LTG DSNT NW-NE
KPIB 160256Z AUTO 16003KT 4SM BR CLR 22/22 A3008 RMK AO2 LTG DSNT N AND NW SLP183 T02220222 53002
KPIB 160156Z AUTO 00000KT 9SM CLR 23/23 A3007 RMK AO2 SLP179 T02330228
KPIB 160056Z AUTO 00000KT 10SM SCT018 24/23 A3008 RMK AO2 SLP183 T02390228
KPIB 160053Z AUTO 18003KT 10SM SCT018 24/23 A3008 RMK AO2
KPIB 160020Z AUTO 15004KT 10SM BKN016 25/23 A3007 RMK AO2 PRESRR
KPIB 152356Z AUTO 14003KT 10SM FEW017 26/23 A3005 RMK AO2 SLP173 T02560233 10294 20250 53005
KPIB 152345Z AUTO 00000KT 10SM SCT017 26/24 A3005 RMK AO2
KPIB 152331Z AUTO 19003KT 10SM BKN017 26/24 A3005 RMK AO2
KPIB 152256Z AUTO 15005KT 10SM CLR 27/24 A3003 RMK AO2 SLP167 T02720239
KPIB 152156Z AUTO VRB05KT 10SM CLR 28/24 A3003 RMK AO2 SLP167 T02830239
KPIB 152056Z AUTO 00000KT 10SM CLR 28/23 A3004 RMK AO2 SLP168 T02780233 56018
KPIB 151956Z AUTO 12004KT 10SM SCT060 BKN080 28/23 A3005 RMK AO2 SLP171 T02830233
KPIB 151856Z AUTO 00000KT 10SM CLR 28/22 A3006 RMK AO2 LTG DSNT NE-S SLP177 T02780222
KPIB 151756Z AUTO 08004KT 10SM CLR 28/23 A3009 RMK AO2 SLP186 T02780233 10278 20222 58016
KPIB 151656Z AUTO VRB03KT 10SM FEW015 SCT050 BKN060 27/23 A3013 RMK AO2 LTG DSNT S AND SW SLP200 T02670233
KPIB 151636Z AUTO 18003KT 10SM FEW002 SCT014 BKN055 27/23 A3014 RMK AO2
KPIB 151556Z AUTO 14005KT 10SM FEW010 SCT060 26/23 A3014 RMK AO2 SLP204 T02610233
KPIB 151527Z AUTO 15003KT 10SM FEW002 BKN049 26/23 A3014 RMK AO2
KPIB 151456Z AUTO 09004KT 10SM FEW047 SCT075 25/23 A3014 RMK AO2 SLP203 T02500228 53016
KPIB 151356Z AUTO 12004KT 10SM BKN060 24/22 A3012 RMK AO2 SLP197 T02390222
KPIB 151256Z AUTO 00000KT 10SM BKN055 23/22 A3010 RMK AO2 SLP191 T02280217
KPIB 151156Z AUTO 00000KT 10SM SCT065 22/22 A3009 RMK AO2 SLP187 T02220217 10233 20211 53010
KPIB 151056Z AUTO 00000KT 10SM CLR 22/21 A3008 RMK AO2 SLP183 T02170211
KPIB 150956Z AUTO 13004KT 10SM BKN060 23/22 A3006 RMK AO2 SLP177 T02330217
KPIB 150856Z AUTO 00000KT 10SM FEW060 23/22 A3006 RMK AO2 SLP176 T02280217 57009
KPIB 150756Z AUTO 00000KT 10SM BKN055 22/22 A3007 RMK AO2 SLP179 T02220217